Archiv-/Tagesdaten

--Timestamp---	Temp	Chill	HIndex	Humid	Dewpt	Wind	HiWind	WindDir	Rain	Barom	Solar	ET	UV
--------------	----	-----	------	-----	-----	----	------	-------	----	-----	-----	--	--
20071228 00:05	-5.3	-5.3	-5.3	94	-6.1	0	0	157	0.00	1036.915	0	0.000	0
20071228 00:10	-5.3	-5.3	-5.3	94	-6.1	0	2	157	0.00	1036.915	0	0.000	0
20071228 00:15	-5.4	-5.4	-5.4	94	-6.2	0	0	157	0.00	1036.915	0	0.000	0
20071228 00:20	-5.4	-5.4	-5.4	94	-6.2	0	0	157	0.00	1036.814	0	0.000	0
20071228 00:25	-5.4	-5.4	-5.4	94	-6.2	0	2	157	0.00	1036.712	0	0.000	0
20071228 00:30	-5.4	-5.4	-5.4	94	-6.2	0	2	157	0.00	1036.814	0	0.000	0
20071228 00:35	-5.4	-5.4	-5.4	94	-6.3	0	0	157	0.00	1036.780	0	0.000	0
20071228 00:40	-5.4	-5.4	-5.4	94	-6.2	0	2	157	0.00	1036.712	0	0.000	0
20071228 00:45	-5.4	-5.4	-5.4	94	-6.3	0	2	157	0.00	1036.678	0	0.000	0
20071228 00:50	-5.4	-5.4	-5.4	94	-6.3	0	0	157	0.00	1036.678	0	0.000	0
20071228 00:55	-5.5	-5.5	-5.5	94	-6.3	0	2	157	0.00	1036.644	0	0.000	0
20071228 01:00	-5.7	-5.7	-5.7	93	-6.6	0	2	157	0.00	1036.644	0	0.000	0
20071228 01:05	-5.7	-5.7	-5.7	93	-6.7	0	0	157	0.00	1036.610	0	0.000	0
20071228 01:10	-5.8	-5.8	-5.8	93	-6.8	0	3	157	0.00	1036.577	0	0.000	0
20071228 01:15	-5.9	-5.9	-5.9	93	-6.8	0	2	157	0.00	1036.577	0	0.000	0
20071228 01:20	-5.9	-5.9	-5.9	93	-6.9	0	3	157	0.00	1036.712	0	0.000	0
20071228 01:25	-5.9	-5.9	-5.9	93	-6.9	0	2	157	0.00	1036.610	0	0.000	0
20071228 01:30	-6.0	-6.0	-6.0	93	-6.9	0	2	157	0.00	1036.644	0	0.000	0
20071228 01:35	-6.0	-6.0	-6.0	93	-6.9	0	3	157	0.00	1036.712	0	0.000	0
20071228 01:40	-6.0	-6.0	-6.0	93	-6.9	2	3	157	0.00	1036.746	0	0.000	0
20071228 01:45	-5.9	-5.9	-5.9	93	-6.9	0	0	157	0.00	1036.678	0	0.000	0
20071228 01:50	-5.9	-5.9	-5.9	93	-6.9	0	0	157	0.00	1036.644	0	0.000	0
20071228 01:55	-5.9	-5.9	-5.9	93	-6.8	0	0	157	0.00	1036.610	0	0.000	0
20071228 02:00	-5.8	-5.8	-5.8	93	-6.8	0	0	157	0.00	1036.644	0	0.000	0
20071228 02:05	-5.8	-5.8	-5.8	93	-6.8	0	0	157	0.00	1036.543	0	0.000	0
20071228 02:10	-5.8	-5.8	-5.8	94	-6.6	0	2	157	0.00	1036.610	0	0.000	0
20071228 02:15	-5.7	-5.7	-5.7	94	-6.5	3	6	292	0.00	1036.780	0	0.000	0
20071228 02:20	-5.7	-5.7	-5.7	94	-6.5	3	6	292	0.00	1036.712	0	0.000	0
20071228 02:25	-5.6	-5.6	-5.6	94	-6.4	2	5	315	0.00	1036.814	0	0.000	0
20071228 02:30	-5.6	-5.6	-5.6	94	-6.4	2	5	315	0.00	1036.847	0	0.000	0
20071228 02:35	-5.6	-5.6	-5.6	94	-6.4	2	3	337	0.00	1036.847	0	0.000	0
20071228 02:40	-5.6	-5.6	-5.6	93	-6.5	2	3	337	0.00	1036.949	0	0.000	0
20071228 02:45	-5.6	-5.6	-5.6	93	-6.5	0	2	337	0.00	1036.847	0	0.000	0
20071228 02:50	-5.6	-5.6	-5.6	94	-6.4	0	3	337	0.00	1036.814	0	0.000	0
20071228 02:55	-5.5	-5.5	-5.5	94	-6.3	0	0	337	0.00	1036.746	0	0.000	0
20071228 03:00	-5.6	-5.6	-5.6	94	-6.4	0	0	337	0.00	1036.712	0	0.000	0
20071228 03:05	-5.6	-5.6	-5.6	93	-6.6	2	3	67	0.00	1036.780	0	0.000	0
20071228 03:10	-5.7	-5.7	-5.7	93	-6.7	0	3	67	0.00	1036.746	0	0.000	0
20071228 03:15	-5.8	-5.8	-5.8	93	-6.7	0	0	67	0.00	1036.746	0	0.000	0
20071228 03:20	-5.8	-5.8	-5.8	93	-6.8	0	0	67	0.00	1036.678	0	0.000	0
20071228 03:25	-5.8	-5.8	-5.8	93	-6.8	0	2	67	0.00	1036.610	0	0.000	0
20071228 03:30	-5.9	-5.9	-5.9	93	-6.9	0	2	157	0.00	1036.543	0	0.000	0
20071228 03:35	-6.1	-6.1	-6.1	93	-7.0	0	3	157	0.00	1036.509	0	0.000	0
20071228 03:40	-6.2	-6.2	-6.2	93	-7.2	0	2	157	0.00	1036.543	0	0.000	0
20071228 03:45	-6.3	-6.3	-6.3	93	-7.3	0	3	157	0.00	1036.509	0	0.000	0
20071228 03:50	-6.4	-6.4	-6.4	93	-7.4	0	2	157	0.00	1036.644	0	0.000	0
20071228 03:55	-6.6	-6.6	-6.6	93	-7.5	2	5	157	0.00	1036.543	0	0.000	0
20071228 04:00	-6.6	-6.6	-6.6	93	-7.6	0	3	202	0.00	1036.509	0	0.000	0
20071228 04:05	-6.7	-6.7	-6.7	93	-7.6	0	2	202	0.00	1036.543	0	0.000	0
20071228 04:10	-6.7	-6.7	-6.7	93	-7.7	2	5	202	0.00	1036.577	0	0.000	0
20071228 04:15	-6.8	-6.8	-6.8	93	-7.8	2	5	202	0.00	1036.577	0	0.000	0
20071228 04:20	-6.8	-6.8	-6.8	93	-7.8	2	5	202	0.00	1036.644	0	0.000	0
20071228 04:25	-6.8	-6.8	-6.8	93	-7.8	0	3	202	0.00	1036.712	0	0.000	0
20071228 04:30	-6.8	-6.8	-6.8	93	-7.8	2	3	202	0.00	1036.644	0	0.000	0
20071228 04:35	-6.8	-6.8	-6.8	93	-7.8	0	0	202	0.00	1036.644	0	0.000	0
20071228 04:40	-6.8	-6.8	-6.8	93	-7.8	0	0	202	0.00	1036.577	0	0.000	0
20071228 04:45	-6.8	-6.8	-6.8	93	-7.8	0	3	202	0.00	1036.543	0	0.000	0
20071228 04:50	-7.0	-7.0	-7.0	92	-8.1	2	3	202	0.00	1036.543	0	0.000	0
20071228 04:55	-7.0	-7.0	-7.0	92	-8.1	0	2	202	0.00	1036.644	0	0.000	0
20071228 05:00	-7.0	-7.0	-7.0	93	-7.9	0	3	202	0.00	1036.610	0	0.000	0
20071228 05:05	-7.0	-7.0	-7.0	93	-7.9	0	2	202	0.00	1036.577	0	0.000	0
20071228 05:10	-7.0	-7.0	-7.0	93	-7.9	0	2	202	0.00	1036.475	0	0.000	0
20071228 05:15	-7.1	-7.1	-7.1	93	-8.0	0	2	202	0.00	1036.509	0	0.000	0
20071228 05:20	-7.1	-7.1	-7.1	93	-8.0	0	5	202	0.00	1036.543	0	0.000	0
20071228 05:25	-7.2	-7.2	-7.2	93	-8.1	0	3	202	0.00	1036.610	0	0.000	0
20071228 05:30	-7.2	-7.2	-7.2	93	-8.1	0	2	202	0.00	1036.644	0	0.000	0
20071228 05:35	-7.2	-7.2	-7.2	93	-8.1	3	5	292	0.00	1036.712	0	0.000	0
20071228 05:40	-7.2	-7.2	-7.2	93	-8.1	0	2	292	0.00	1036.678	0	0.000	0
20071228 05:45	-7.2	-7.2	-7.2	93	-8.1	0	3	292	0.00	1036.678	0	0.000	0
20071228 05:50	-7.2	-7.2	-7.2	93	-8.1	0	0	292	0.00	1036.678	0	0.000	0
20071228 05:55	-7.2	-7.2	-7.2	93	-8.1	0	2	292	0.00	1036.644	0	0.000	0
20071228 06:00	-7.1	-7.1	-7.1	93	-8.0	0	2	292	0.00	1036.577	0	0.000	0
20071228 06:05	-7.1	-7.1	-7.1	92	-8.2	0	0	292	0.00	1036.610	0	0.000	0
20071228 06:10	-7.1	-7.1	-7.1	92	-8.2	0	0	292	0.00	1036.644	0	0.000	0
20071228 06:15	-7.1	-7.1	-7.1	93	-8.0	0	0	292	0.00	1036.644	0	0.000	0
20071228 06:20	-7.1	-7.1	-7.1	93	-8.0	0	2	292	0.00	1036.644	0	0.000	0
20071228 06:25	-7.2	-7.2	-7.2	93	-8.1	0	2	292	0.00	1036.610	0	0.000	0
20071228 06:30	-7.3	-7.3	-7.3	92	-8.4	0	2	292	0.00	1036.610	0	0.000	0
20071228 06:35	-7.3	-7.3	-7.3	92	-8.4	0	0	292	0.00	1036.509	0	0.000	0
20071228 06:40	-7.3	-7.3	-7.3	92	-8.4	0	2	292	0.00	1036.475	0	0.000	0
20071228 06:45	-7.4	-7.4	-7.4	92	-8.5	0	0	292	0.00	1036.543	0	0.000	0
20071228 06:50	-7.4	-7.4	-7.4	92	-8.5	0	0	292	0.00	1036.509	0	0.000	0
20071228 06:55	-7.4	-7.4	-7.4	92	-8.5	0	2	292	0.00	1036.441	0	0.000	0
20071228 07:00	-7.5	-7.5	-7.5	92	-8.6	0	2	292	0.00	1036.339	0	0.000	0
20071228 07:05	-7.6	-7.6	-7.6	92	-8.6	0	2	292	0.00	1036.407	0	0.000	0
20071228 07:10	-7.6	-7.6	-7.6	92	-8.6	0	3	180	0.00	1036.441	0	0.000	0
20071228 07:15	-7.7	-7.7	-7.7	92	-8.7	0	2	180	0.00	1036.407	0	0.000	0
20071228 07:20	-7.7	-7.7	-7.7	92	-8.7	0	3	180	0.00	1036.475	0	0.000	0
20071228 07:25	-7.7	-7.7	-7.7	92	-8.8	0	3	180	0.00	1036.509	0	0.000	0
20071228 07:30	-7.8	-7.8	-7.8	92	-8.8	0	3	180	0.00	1036.543	0	0.000	0
20071228 07:35	-7.8	-7.8	-7.8	92	-8.9	0	2	180	0.00	1036.644	0	0.000	0
20071228 07:40	-7.9	-7.9	-7.9	92	-9.0	0	0	180	0.00	1036.644	0	0.000	0
20071228 07:45	-8.1	-8.1	-8.1	92	-9.1	0	0	180	0.00	1036.577	0	0.000	0
20071228 07:50	-8.1	-8.1	-8.1	92	-9.2	0	2	180	0.00	1036.543	0	0.000	0
20071228 07:55	-8.1	-8.1	-8.1	92	-9.2	0	0	180	0.00	1036.577	0	0.000	0
20071228 08:00	-8.1	-8.1	-8.1	92	-9.2	0	2	180	0.00	1036.610	0	0.000	0
20071228 08:05	-8.1	-8.1	-8.1	92	-9.2	0	0	180	0.00	1036.881	0	0.000	0
20071228 08:10	-8.1	-8.1	-8.1	92	-9.2	0	0	180	0.00	1036.949	3	0.000	0
20071228 08:15	-8.1	-8.1	-8.1	92	-9.2	0	0	180	0.00	1036.881	7	0.000	0
20071228 08:20	-8.2	-8.2	-8.2	92	-9.2	0	2	180	0.00	1036.881	12	0.000	0
20071228 08:25	-8.2	-8.2	-8.2	92	-9.2	0	0	180	0.00	1036.915	16	0.000	0
20071228 08:30	-8.2	-8.2	-8.2	92	-9.2	0	0	180	0.00	1036.814	19	0.000	0
20071228 08:35	-8.1	-8.1	-8.1	92	-9.2	0	0	180	0.00	1036.814	20	0.000	0
20071228 08:40	-8.1	-8.1	-8.1	92	-9.1	0	0	180	0.00	1036.780	24	0.000	0
20071228 08:45	-8.1	-8.1	-8.1	92	-9.1	0	2	180	0.00	1036.678	28	0.000	0
20071228 08:50	-8.1	-8.1	-8.1	92	-9.1	0	0	180	0.00	1036.644	32	0.000	0
20071228 08:55	-8.0	-8.0	-8.0	92	-9.1	0	0	180	0.00	1036.509	37	0.000	0
20071228 09:00	-8.0	-8.0	-8.0	92	-9.1	0	2	180	0.00	1036.543	41	0.000	0
20071228 09:05	-8.1	-8.1	-8.1	92	-9.1	0	0	180	0.00	1036.475	46	0.000	0
20071228 09:10	-8.1	-8.1	-8.1	92	-9.1	0	2	180	0.00	1036.441	56	0.000	0
20071228 09:15	-8.0	-8.0	-8.0	92	-9.1	0	0	180	0.00	1036.373	61	0.000	0
20071228 09:20	-7.9	-7.9	-7.9	92	-9.0	0	0	180	0.00	1036.339	67	0.000	0
20071228 09:25	-7.8	-7.8	-7.8	92	-8.9	0	0	180	0.00	1036.407	73	0.000	0
20071228 09:30	-7.7	-7.7	-7.7	92	-8.8	0	2	180	0.00	1036.407	73	0.000	0
20071228 09:35	-7.6	-7.6	-7.6	92	-8.6	0	2	180	0.00	1036.407	73	0.000	0
20071228 09:40	-7.4	-7.4	-7.4	93	-8.4	0	0	180	0.00	1036.441	76	0.000	0
20071228 09:45	-7.3	-7.3	-7.3	92	-8.4	0	2	180	0.00	1036.441	76	0.000	0
20071228 09:50	-7.2	-7.2	-7.2	92	-8.2	0	2	180	0.00	1036.373	74	0.000	0
20071228 09:55	-7.1	-7.1	-7.1	92	-8.1	0	0	180	0.00	1036.339	73	0.000	0
20071228 10:00	-6.9	-6.9	-6.9	92	-8.0	0	2	180	0.00	1036.068	70	0.020	0
20071228 10:05	-6.8	-6.8	-6.8	92	-7.9	0	2	180	0.00	1036.306	72	0.000	0
20071228 10:10	-6.8	-6.8	-6.8	92	-7.9	0	3	180	0.00	1036.339	76	0.000	0
20071228 10:15	-6.6	-6.6	-6.6	92	-7.7	0	3	180	0.00	1036.238	77	0.000	0
20071228 10:20	-6.6	-6.6	-6.6	92	-7.6	0	2	180	0.00	1036.204	82	0.000	0
20071228 10:25	-6.4	-6.4	-6.4	92	-7.5	0	0	180	0.00	1036.238	85	0.000	0
20071228 10:30	-6.3	-6.3	-6.3	92	-7.4	0	2	180	0.00	1036.068	88	0.000	0
20071228 10:35	-6.2	-6.2	-6.2	92	-7.3	0	2	180	0.00	1035.933	92	0.000	0
20071228 10:40	-6.1	-6.1	-6.1	92	-7.2	0	0	180	0.00	1035.865	96	0.000	0
20071228 10:45	-5.9	-5.9	-5.9	92	-7.0	0	0	180	0.00	1035.831	98	0.000	0
20071228 10:50	-5.8	-5.8	-5.8	93	-6.7	0	3	180	0.00	1035.764	99	0.000	0
20071228 10:55	-5.7	-5.7	-5.7	92	-6.8	0	2	180	0.00	1035.831	106	0.000	0
20071228 11:00	-5.5	-5.5	-5.5	93	-6.4	0	0	180	0.00	1035.831	112	0.020	0
20071228 11:05	-5.3	-5.3	-5.3	93	-6.3	0	3	180	0.00	1035.764	116	0.000	0
20071228 11:10	-5.2	-5.2	-5.2	93	-6.1	0	3	180	0.00	1035.662	157	0.000	0
20071228 11:15	-5.1	-5.1	-5.1	93	-6.0	0	3	180	0.00	1035.594	184	0.000	0
20071228 11:20	-5.0	-5.0	-5.0	93	-6.0	2	5	180	0.00	1035.628	182	0.000	0
20071228 11:25	-4.9	-4.9	-4.9	93	-5.9	3	6	180	0.00	1035.628	180	0.000	0
20071228 11:30	-4.9	-4.9	-4.9	92	-6.0	2	5	180	0.00	1035.561	200	0.000	0
20071228 11:35	-4.8	-4.8	-4.8	92	-5.9	2	5	180	0.00	1035.561	194	0.000	0
20071228 11:40	-4.7	-4.7	-4.7	92	-5.8	2	5	67	0.00	1035.425	186	0.000	0
20071228 11:45	-4.6	-4.6	-4.6	93	-5.5	2	5	45	0.00	1035.425	189	0.000	0
20071228 11:50	-4.5	-4.5	-4.5	92	-5.6	3	5	45	0.00	1035.425	183	0.000	0
20071228 11:55	-4.4	-4.4	-4.4	93	-5.3	2	5	45	0.00	1035.290	192	0.000	0
20071228 12:00	-4.2	-4.2	-4.2	93	-5.1	3	6	45	0.00	1035.290	187	0.040	0
20071228 12:05	-4.1	-4.1	-4.1	93	-5.0	3	6	0	0.00	1035.188	195	0.000	0
20071228 12:10	-4.1	-4.1	-4.1	93	-5.0	5	8	0	0.00	1035.154	129	0.000	0
20071228 12:15	-4.2	-4.2	-4.2	93	-5.2	5	8	22	0.00	1035.154	128	0.000	0
20071228 12:20	-4.2	-4.2	-4.2	93	-5.2	3	6	22	0.00	1035.053	132	0.000	0
20071228 12:25	-4.2	-4.2	-4.2	93	-5.2	3	6	22	0.00	1035.019	120	0.000	0
20071228 12:30	-4.2	-4.2	-4.2	93	-5.2	5	10	22	0.00	1034.985	123	0.000	0
20071228 12:35	-4.3	-4.3	-4.3	93	-5.2	3	6	45	0.00	1034.883	108	0.000	0
20071228 12:40	-4.4	-4.4	-4.4	93	-5.3	5	6	45	0.00	1034.816	93	0.000	0
20071228 12:45	-4.4	-4.4	-4.4	93	-5.4	3	8	22	0.00	1034.714	98	0.000	0
20071228 12:50	-4.5	-4.5	-4.5	93	-5.5	3	6	22	0.00	1034.646	97	0.000	0
20071228 12:55	-4.4	-4.4	-4.4	93	-5.4	3	6	45	0.00	1034.578	93	0.000	0
20071228 13:00	-4.4	-4.4	-4.4	93	-5.4	2	6	45	0.00	1034.612	87	0.020	0
20071228 13:05	-4.5	-4.5	-4.5	93	-5.5	3	5	45	0.00	1034.545	73	0.000	0
20071228 13:10	-4.5	-4.5	-4.5	93	-5.5	2	6	45	0.00	1034.511	76	0.000	0
20071228 13:15	-4.4	-4.4	-4.4	93	-5.4	3	8	45	0.00	1034.511	73	0.000	0
20071228 13:20	-4.4	-4.4	-4.4	93	-5.4	2	5	45	0.00	1034.511	83	0.000	0
20071228 13:25	-4.4	-4.4	-4.4	93	-5.4	3	5	45	0.00	1034.443	75	0.000	0
20071228 13:30	-4.4	-4.4	-4.4	93	-5.4	2	6	45	0.00	1034.308	81	0.000	0
20071228 13:35	-4.3	-4.3	-4.3	93	-5.3	3	6	45	0.00	1034.341	77	0.000	0
20071228 13:40	-4.3	-4.3	-4.3	93	-5.3	3	6	67	0.00	1034.341	68	0.000	0
20071228 13:45	-4.3	-4.3	-4.3	93	-5.2	2	3	67	0.00	1034.274	69	0.000	0
20071228 13:50	-4.2	-4.2	-4.2	94	-5.0	2	3	67	0.00	1034.308	76	0.000	0
20071228 13:55	-4.2	-4.2	-4.2	94	-5.0	2	5	90	0.00	1034.274	88	0.000	0
20071228 14:00	-4.1	-4.1	-4.1	94	-4.9	2	5	90	0.00	1034.206	79	0.020	0
20071228 14:05	-4.2	-4.2	-4.2	94	-5.0	3	6	67	0.00	1034.206	67	0.000	0
20071228 14:10	-4.2	-4.2	-4.2	94	-5.0	3	6	22	0.00	1034.003	68	0.000	0
20071228 14:15	-4.1	-4.1	-4.1	94	-4.9	2	3	22	0.00	1034.003	68	0.000	0
20071228 14:20	-4.1	-4.1	-4.1	94	-4.9	3	5	22	0.00	1034.003	67	0.000	0
20071228 14:25	-4.1	-4.1	-4.1	94	-4.9	2	3	112	0.00	1033.969	62	0.000	0
20071228 14:30	-4.2	-4.2	-4.2	93	-5.1	0	3	112	0.00	1033.969	63	0.000	0
20071228 14:35	-4.2	-4.2	-4.2	94	-5.0	2	5	112	0.00	1033.935	56	0.000	0
20071228 14:40	-4.2	-4.2	-4.2	94	-5.0	2	5	112	0.00	1033.867	61	0.000	0
20071228 14:45	-4.1	-4.1	-4.1	94	-4.9	2	3	112	0.00	1033.867	46	0.000	0
20071228 14:50	-4.1	-4.1	-4.1	94	-4.9	0	3	112	0.00	1033.833	43	0.000	0
20071228 14:55	-4.0	-4.0	-4.0	94	-4.8	2	5	112	0.00	1033.867	42	0.000	0
20071228 15:00	-4.0	-4.0	-4.0	94	-4.8	2	5	112	0.00	1033.800	44	0.020	0
20071228 15:05	-4.1	-4.1	-4.1	94	-4.9	0	3	112	0.00	1033.969	38	0.000	0
20071228 15:10	-4.1	-4.1	-4.1	94	-4.9	2	5	112	0.00	1033.901	35	0.000	0
20071228 15:15	-4.2	-4.2	-4.2	94	-5.0	0	3	112	0.00	1033.833	34	0.000	0
20071228 15:20	-4.1	-4.1	-4.1	94	-4.9	0	2	112	0.00	1033.833	30	0.000	0
20071228 15:25	-4.0	-4.0	-4.0	94	-4.8	2	8	112	0.00	1033.833	28	0.000	0
20071228 15:30	-4.1	-4.1	-4.1	94	-4.9	3	8	112	0.00	1033.800	25	0.000	0
20071228 15:35	-4.2	-4.2	-4.2	94	-5.0	2	5	112	0.00	1033.766	25	0.000	0
20071228 15:40	-4.2	-4.2	-4.2	94	-5.0	0	0	112	0.00	1033.800	24	0.000	0
20071228 15:45	-4.1	-4.1	-4.1	94	-4.9	0	5	112	0.00	1033.732	20	0.000	0
20071228 15:50	-4.1	-4.1	-4.1	94	-4.9	3	6	112	0.00	1033.698	16	0.000	0
20071228 15:55	-4.1	-4.1	-4.1	94	-4.9	2	6	112	0.00	1033.630	18	0.000	0
20071228 16:00	-4.1	-4.1	-4.1	94	-4.9	3	6	112	0.00	1033.529	14	0.000	0
20071228 16:05	-4.1	-4.1	-4.1	94	-4.9	2	5	112	0.00	1033.563	12	0.000	0
20071228 16:10	-4.1	-4.1	-4.1	94	-4.9	2	5	112	0.00	1033.529	9	0.000	0
20071228 16:15	-4.1	-4.1	-4.1	94	-4.9	0	3	135	0.00	1033.427	7	0.000	0
20071228 16:20	-4.1	-4.1	-4.1	94	-4.9	2	3	135	0.00	1033.393	2	0.000	0
20071228 16:25	-4.1	-4.1	-4.1	94	-4.9	0	3	135	0.00	1033.427	0	0.000	0
20071228 16:30	-4.1	-4.1	-4.1	94	-4.9	0	3	135	0.00	1033.427	0	0.000	0
20071228 16:35	-4.1	-4.1	-4.1	94	-4.9	0	3	135	0.00	1033.461	0	0.000	0
20071228 16:40	-4.1	-4.1	-4.1	94	-4.9	0	5	135	0.00	1033.495	0	0.000	0
20071228 16:45	-4.1	-4.1	-4.1	94	-4.9	0	3	135	0.00	1033.427	0	0.000	0
20071228 16:50	-4.1	-4.1	-4.1	94	-4.9	0	5	135	0.00	1033.461	0	0.000	0
20071228 16:55	-4.1	-4.1	-4.1	94	-4.9	0	5	135	0.00	1033.427	0	0.000	0
20071228 17:00	-4.1	-4.1	-4.1	94	-4.9	0	2	135	0.00	1033.461	0	0.000	0
20071228 17:05	-4.1	-4.1	-4.1	94	-4.9	0	3	135	0.00	1033.427	0	0.000	0
20071228 17:10	-4.2	-4.2	-4.2	94	-5.0	0	0	135	0.00	1033.461	0	0.000	0
20071228 17:15	-4.2	-4.2	-4.2	94	-5.0	0	0	135	0.00	1033.630	0	0.000	0
20071228 17:20	-4.3	-4.3	-4.3	94	-5.2	0	0	135	0.00	1033.630	0	0.000	0
20071228 17:25	-4.3	-4.3	-4.3	94	-5.2	0	0	135	0.00	1033.495	0	0.000	0
20071228 17:30	-4.4	-4.4	-4.4	94	-5.2	0	2	135	0.00	1033.563	0	0.000	0
20071228 17:35	-4.4	-4.4	-4.4	94	-5.2	0	0	135	0.00	1033.461	0	0.000	0
20071228 17:40	-4.4	-4.4	-4.4	94	-5.3	0	3	135	0.00	1033.495	0	0.000	0
20071228 17:45	-4.4	-4.4	-4.4	94	-5.3	2	5	135	0.00	1033.563	0	0.000	0
20071228 17:50	-4.5	-4.5	-4.5	94	-5.3	2	5	135	0.00	1033.630	0	0.000	0
20071228 17:55	-4.5	-4.5	-4.5	94	-5.3	2	5	135	0.00	1033.563	0	0.000	0
20071228 18:00	-4.4	-4.4	-4.4	94	-5.3	2	5	135	0.00	1033.596	0	0.000	0
20071228 18:05	-4.4	-4.4	-4.4	94	-5.2	2	3	135	0.00	1033.563	0	0.000	0
20071228 18:10	-4.3	-4.3	-4.3	94	-5.2	2	5	135	0.00	1033.495	0	0.000	0
20071228 18:15	-4.3	-4.3	-4.3	94	-5.1	2	5	135	0.00	1033.563	0	0.000	0
20071228 18:20	-4.3	-4.3	-4.3	94	-5.1	2	5	135	0.00	1033.529	0	0.000	0
20071228 18:25	-4.3	-4.3	-4.3	94	-5.1	2	5	135	0.00	1033.393	0	0.000	0
20071228 18:30	-4.3	-4.3	-4.3	94	-5.2	3	5	135	0.00	1033.393	0	0.000	0
20071228 18:35	-4.4	-4.4	-4.4	94	-5.2	3	5	135	0.00	1033.292	0	0.000	0
20071228 18:40	-4.4	-4.4	-4.4	94	-5.2	2	3	135	0.00	1033.258	0	0.000	0
20071228 18:45	-4.4	-4.4	-4.4	94	-5.3	2	3	135	0.00	1033.258	0	0.000	0
20071228 18:50	-4.4	-4.4	-4.4	94	-5.3	0	3	135	0.00	1033.224	0	0.000	0
20071228 18:55	-4.5	-4.5	-4.5	94	-5.3	0	3	135	0.00	1033.224	0	0.000	0
20071228 19:00	-4.4	-4.4	-4.4	94	-5.3	2	5	135	0.00	1033.089	0	0.000	0
20071228 19:05	-4.4	-4.4	-4.4	94	-5.3	3	6	135	0.00	1033.156	0	0.000	0
20071228 19:10	-4.5	-4.5	-4.5	94	-5.3	5	6	135	0.00	1033.156	0	0.000	0
20071228 19:15	-4.7	-4.7	-4.7	94	-5.5	3	6	135	0.00	1033.122	0	0.000	0
20071228 19:20	-4.7	-4.7	-4.7	94	-5.5	3	6	135	0.00	1033.122	0	0.000	0
20071228 19:25	-4.8	-4.8	-4.8	94	-5.6	2	6	135	0.00	1033.156	0	0.000	0
20071228 19:30	-4.7	-4.7	-4.7	94	-5.5	2	3	135	0.00	1033.055	0	0.000	0
20071228 19:35	-4.6	-4.6	-4.6	94	-5.4	2	5	135	0.00	1033.021	0	0.000	0
20071228 19:40	-4.6	-4.6	-4.6	94	-5.4	0	3	135	0.00	1032.987	0	0.000	0
20071228 19:45	-4.7	-4.7	-4.7	94	-5.5	2	5	135	0.00	1033.021	0	0.000	0
20071228 19:50	-4.7	-4.7	-4.7	93	-5.7	2	5	135	0.00	1032.919	0	0.000	0
20071228 19:55	-4.8	-4.8	-4.8	94	-5.6	2	5	135	0.00	1032.919	0	0.000	0
20071228 20:00	-4.8	-4.8	-4.8	94	-5.6	2	6	135	0.00	1032.919	0	0.000	0
20071228 20:05	-4.9	-4.9	-4.9	93	-5.8	2	3	135	0.00	1032.851	0	0.000	0
20071228 20:10	-4.9	-4.9	-4.9	93	-5.9	0	5	135	0.00	1032.851	0	0.000	0
20071228 20:15	-5.1	-5.1	-5.1	93	-6.1	2	5	135	0.00	1032.784	0	0.000	0
20071228 20:20	-5.2	-5.2	-5.2	93	-6.1	3	5	135	0.00	1032.784	0	0.000	0
20071228 20:25	-5.2	-5.2	-5.2	93	-6.2	0	3	135	0.00	1032.851	0	0.000	0
20071228 20:30	-5.2	-5.2	-5.2	93	-6.2	2	3	135	0.00	1032.851	0	0.000	0
20071228 20:35	-5.2	-5.2	-5.2	93	-6.2	0	3	135	0.00	1032.851	0	0.000	0
20071228 20:40	-5.3	-5.3	-5.3	93	-6.2	2	5	135	0.00	1032.784	0	0.000	0
20071228 20:45	-5.4	-5.4	-5.4	93	-6.3	2	3	135	0.00	1032.750	0	0.000	0
20071228 20:50	-5.5	-5.5	-5.5	93	-6.4	3	6	135	0.00	1032.716	0	0.000	0
20071228 20:55	-5.6	-5.6	-5.6	93	-6.5	3	6	135	0.00	1032.716	0	0.000	0
20071228 21:00	-5.6	-5.6	-5.6	93	-6.6	2	3	135	0.00	1032.716	0	0.000	0
20071228 21:05	-5.7	-5.7	-5.7	93	-6.6	0	3	135	0.00	1032.581	0	0.000	0
20071228 21:10	-5.8	-5.8	-5.8	93	-6.7	0	2	135	0.00	1032.547	0	0.000	0
20071228 21:15	-5.9	-5.9	-5.9	93	-6.8	0	2	135	0.00	1032.513	0	0.000	0
20071228 21:20	-6.0	-6.0	-6.0	93	-6.9	0	3	135	0.00	1032.682	0	0.000	0
20071228 21:25	-6.1	-6.1	-6.1	93	-7.1	0	3	135	0.00	1032.648	0	0.000	0
20071228 21:30	-6.2	-6.2	-6.2	93	-7.1	0	3	135	0.00	1032.479	0	0.000	0
20071228 21:35	-6.2	-6.2	-6.2	93	-7.2	0	3	135	0.00	1032.411	0	0.000	0
20071228 21:40	-6.3	-6.3	-6.3	93	-7.2	0	3	135	0.00	1032.445	0	0.000	0
20071228 21:45	-6.3	-6.3	-6.3	93	-7.3	0	2	135	0.00	1032.411	0	0.000	0
20071228 21:50	-6.4	-6.4	-6.4	93	-7.3	0	2	135	0.00	1032.377	0	0.000	0
20071228 21:55	-6.4	-6.4	-6.4	93	-7.4	0	2	135	0.00	1032.344	0	0.000	0
20071228 22:00	-6.4	-6.4	-6.4	93	-7.4	0	0	135	0.00	1032.242	0	0.000	0
20071228 22:05	-6.4	-6.4	-6.4	93	-7.4	0	3	135	0.00	1032.073	0	0.000	0
20071228 22:10	-6.5	-6.5	-6.5	93	-7.4	2	5	135	0.00	1032.039	0	0.000	0
20071228 22:15	-6.6	-6.6	-6.6	93	-7.5	2	3	135	0.00	1031.971	0	0.000	0
20071228 22:20	-6.6	-6.6	-6.6	92	-7.7	0	3	135	0.00	1031.971	0	0.000	0
20071228 22:25	-6.7	-6.7	-6.7	93	-7.6	0	2	135	0.00	1031.971	0	0.000	0
20071228 22:30	-6.7	-6.7	-6.7	93	-7.6	0	5	135	0.00	1031.869	0	0.000	0
20071228 22:35	-6.7	-6.7	-6.7	92	-7.7	0	3	135	0.00	1031.869	0	0.000	0
20071228 22:40	-6.7	-6.7	-6.7	92	-7.7	0	2	135	0.00	1031.937	0	0.000	0
20071228 22:45	-6.7	-6.7	-6.7	92	-7.7	0	2	135	0.00	1031.768	0	0.000	0
20071228 22:50	-6.7	-6.7	-6.7	92	-7.8	0	2	135	0.00	1031.768	0	0.000	0
20071228 22:55	-6.8	-6.8	-6.8	92	-7.9	0	2	135	0.00	1031.700	0	0.000	0
20071228 23:00	-6.8	-6.8	-6.8	92	-7.9	0	3	135	0.00	1031.666	0	0.000	0
20071228 23:05	-6.8	-6.8	-6.8	92	-7.9	0	3	135	0.00	1031.531	0	0.000	0
20071228 23:10	-6.8	-6.8	-6.8	92	-7.9	0	0	135	0.00	1031.531	0	0.000	0
20071228 23:15	-6.8	-6.8	-6.8	92	-7.9	0	2	135	0.00	1031.395	0	0.000	0
20071228 23:20	-6.9	-6.9	-6.9	92	-8.0	0	2	135	0.00	1031.395	0	0.000	0
20071228 23:25	-7.1	-7.1	-7.1	92	-8.1	0	3	135	0.00	1031.361	0	0.000	0
20071228 23:30	-7.1	-7.1	-7.1	92	-8.2	0	3	135	0.00	1031.361	0	0.000	0
20071228 23:35	-7.2	-7.2	-7.2	92	-8.3	0	2	135	0.00	1031.328	0	0.000	0
20071228 23:40	-7.3	-7.3	-7.3	92	-8.4	0	3	135	0.00	1031.260	0	0.000	0
20071228 23:45	-7.3	-7.3	-7.3	91	-8.5	2	5	135	0.00	1031.192	0	0.000	0
20071228 23:50	-7.4	-7.4	-7.4	92	-8.5	2	5	135	0.00	1031.091	0	0.000	0
20071228 23:55	-7.4	-7.4	-7.4	92	-8.5	0	3	135	0.00	1031.057	0	0.000	0
20071228 24:00	-7.5	-7.5	-7.5	92	-8.6	2	3	135	0.00	1030.989	0	0.000	0



Please note the license to use and transfer of this data:
http://creativecommons.org/licenses/by-nc-sa/3.0/deed.en

Bitte beachten sie die Lizenz zur Verwertung und Weitergabe der Daten:
http://creativecommons.org/licenses/by-nc-sa/3.0/deed.de

zurück zur Übersicht der Archivdaten (Monats und Tagesdaten)

Cookies helfen bei der Bereitstellung von Inhalten. Durch die Nutzung dieser Seiten erklärst du dich damit einverstanden, dass Cookies auf deinem Rechner gespeichert werden. Weitere Information